Time;durP1;ratioP1;P1;durP2;ratioP2;P2;SDS_P1;SDS_P2;PMS_P1;PMS_P2;Temp;Humidity;BMP_temperature;BMP_pressure;BME280_temperature;BME280_humidity;BME280_pressure;Samples;Min_cycle;Max_cycle;Signal;HPM_P1;HPM_P2
2023/08/13 00:01:11;;;;;;;10.20;3.38;;;;;;;22.24;100.00;100777.81;4897774;29;20607;-79
2023/08/13 00:03:38;;;;;;;7.95;3.20;;;;;;;22.20;100.00;100773.03;4896947;29;20217;-80
2023/08/13 00:06:07;;;;;;;6.90;2.90;;;;;;;22.21;100.00;100777.41;4901078;29;20380;-77
2023/08/13 00:08:36;;;;;;;6.57;3.10;;;;;;;22.31;98.56;100764.25;4898894;29;20277;-77
2023/08/13 00:11:09;;;;;;;5.45;3.13;;;;;;;22.29;99.42;100782.53;4897523;29;20233;-77
2023/08/13 00:13:36;;;;;;;7.60;3.15;;;;;;;22.19;100.00;100771.38;4899446;29;20695;-76
2023/08/13 00:16:05;;;;;;;11.88;3.65;;;;;;;22.17;100.00;100779.69;4896934;29;20618;-76
2023/08/13 00:18:33;;;;;;;6.05;2.70;;;;;;;22.24;98.45;100771.56;4899641;29;20221;-77
2023/08/13 00:21:01;;;;;;;6.93;3.25;;;;;;;22.18;99.91;100773.25;4898431;29;20282;-79
2023/08/13 00:23:29;;;;;;;9.20;2.65;;;;;;;22.17;99.75;100779.69;4896379;29;20237;-76
2023/08/13 00:25:58;;;;;;;5.90;3.25;;;;;;;22.12;100.00;100774.97;4898568;29;20204;-73
2023/08/13 00:28:26;;;;;;;8.18;3.67;;;;;;;22.05;100.00;100779.56;4898519;29;20220;-76
2023/08/13 00:30:55;;;;;;;6.45;3.58;;;;;;;22.01;100.00;100778.34;4896506;29;20901;-76
2023/08/13 00:33:22;;;;;;;6.78;3.03;;;;;;;22.03;100.00;100776.25;4899503;29;20236;-76
2023/08/13 00:35:51;;;;;;;5.10;2.78;;;;;;;22.00;100.00;100776.66;4898569;29;20269;-75
2023/08/13 00:38:19;;;;;;;9.02;3.55;;;;;;;21.93;100.00;100775.00;4897209;29;20682;-76
2023/08/13 00:40:47;;;;;;;5.88;2.75;;;;;;;21.90;100.00;100773.56;4896619;29;20225;-77
2023/08/13 00:43:16;;;;;;;4.90;3.13;;;;;;;22.00;100.00;100776.66;4897766;29;20241;-77
2023/08/13 00:45:44;;;;;;;6.85;3.30;;;;;;;22.07;99.70;100776.66;4896262;29;20232;-77
2023/08/13 00:48:12;;;;;;;5.78;3.15;;;;;;;21.95;100.00;100767.53;4897808;29;21172;-77
2023/08/13 00:50:40;;;;;;;5.90;2.97;;;;;;;21.85;100.00;100768.00;4897141;29;20236;-75
2023/08/13 00:53:10;;;;;;;9.05;2.90;;;;;;;21.87;100.00;100768.63;4907899;29;20210;-71
2023/08/13 00:55:38;;;;;;;6.63;2.72;;;;;;;21.83;100.00;100769.25;4923721;28;20345;-71
2023/08/13 00:58:07;;;;;;;4.80;2.57;;;;;;;21.83;100.00;100767.38;4908786;29;20209;-78
2023/08/13 01:00:36;;;;;;;5.27;3.10;;;;;;;21.92;100.00;100773.34;4898347;29;20304;-77
2023/08/13 01:03:04;;;;;;;9.47;4.77;;;;;;;22.06;97.65;100767.72;4896207;29;20350;-77
2023/08/13 01:05:39;;;;;;;9.07;4.63;;;;;;;22.05;97.99;100766.06;4898908;29;20211;-75
2023/08/13 01:08:14;;;;;;;7.30;3.50;;;;;;;22.06;97.54;100770.44;4898390;29;20604;-74
2023/08/13 01:10:45;;;;;;;6.22;3.63;;;;;;;22.02;97.78;100774.59;4898014;29;20229;-76
2023/08/13 01:13:19;;;;;;;6.50;3.13;;;;;;;21.98;98.03;100783.34;4895495;29;20209;-78
2023/08/13 01:15:51;;;;;;;9.23;4.03;;;;;;;21.82;100.00;100779.22;4897560;29;20248;-77
2023/08/13 01:18:19;;;;;;;5.43;2.87;;;;;;;21.71;100.00;100777.19;4898629;29;20219;-77
2023/08/13 01:20:47;;;;;;;5.70;3.00;;;;;;;21.62;100.00;100775.78;4900045;29;20296;-76
2023/08/13 01:23:16;;;;;;;6.57;2.57;;;;;;;21.59;100.00;100778.91;4897774;29;20306;-78
2023/08/13 01:25:51;;;;;;;5.70;2.73;;;;;;;21.65;100.00;100778.03;4897405;29;20300;-77
2023/08/13 01:28:27;;;;;;;4.80;2.90;;;;;;;21.58;100.00;100780.75;4895144;29;20292;-75
2023/08/13 01:30:59;;;;;;;5.30;2.40;;;;;;;21.52;100.00;100778.09;4899550;29;20233;-77
2023/08/13 01:33:30;;;;;;;5.23;2.63;;;;;;;21.48;100.00;100769.56;4904427;29;20236;-77
2023/08/13 01:36:01;;;;;;;4.13;2.60;;;;;;;21.48;100.00;100766.06;4903636;29;20666;-74
2023/08/13 01:38:31;;;;;;;6.17;2.70;;;;;;;21.51;100.00;100761.06;4902783;29;20209;-77
2023/08/13 01:41:01;;;;;;;3.13;2.03;;;;;;;21.58;100.00;100763.75;4900594;29;20218;-75
2023/08/13 01:43:30;;;;;;;4.83;2.53;;;;;;;21.53;100.00;100760.88;4901898;29;20260;-76
2023/08/13 01:45:59;;;;;;;6.77;2.57;;;;;;;21.57;100.00;100764.78;4904364;29;20289;-75
2023/08/13 01:48:27;;;;;;;6.97;2.70;;;;;;;21.66;100.00;100766.19;4903409;29;20222;-76
2023/08/13 01:50:54;;;;;;;5.47;2.63;;;;;;;21.72;100.00;100768.88;4902698;29;20590;-75
2023/08/13 01:53:22;;;;;;;5.17;2.30;;;;;;;21.73;100.00;100758.91;4901977;29;20209;-77
2023/08/13 01:55:51;;;;;;;3.43;1.80;;;;;;;21.67;100.00;100759.75;4903200;29;20212;-76
2023/08/13 01:58:19;;;;;;;4.57;2.07;;;;;;;21.65;100.00;100757.28;4902193;29;20213;-71
2023/08/13 02:00:47;;;;;;;4.23;2.07;;;;;;;21.59;100.00;100757.31;4901366;29;20307;-76
2023/08/13 02:03:15;;;;;;;5.77;2.10;;;;;;;21.62;100.00;100759.59;4904364;29;20205;-75
2023/08/13 02:05:43;;;;;;;7.47;2.83;;;;;;;21.74;98.82;100763.25;4903157;29;20260;-75
2023/08/13 02:08:10;;;;;;;4.07;2.10;;;;;;;21.66;99.84;100758.94;4900662;29;20268;-77
2023/08/13 02:10:38;;;;;;;6.37;2.20;;;;;;;21.59;100.00;100766.22;4902962;29;20248;-75
2023/08/13 02:13:07;;;;;;;5.77;2.20;;;;;;;21.53;100.00;100763.56;4904818;29;20253;-76
2023/08/13 02:15:35;;;;;;;4.57;2.10;;;;;;;21.64;99.55;100765.56;4904877;29;20217;-75
2023/08/13 02:18:03;;;;;;;6.47;2.43;;;;;;;21.58;100.00;100777.22;4900478;29;20291;-76
2023/08/13 02:20:31;;;;;;;4.33;2.23;;;;;;;21.55;100.00;100781.19;4904269;29;20213;-78
2023/08/13 02:22:58;;;;;;;5.37;2.07;;;;;;;21.46;100.00;100774.34;4904828;29;20235;-76
2023/08/13 02:25:26;;;;;;;8.83;2.13;;;;;;;21.45;100.00;100779.97;4902315;29;20213;-74
2023/08/13 02:27:54;;;;;;;7.00;2.20;;;;;;;21.43;100.00;100776.66;4898915;29;20240;-76
2023/08/13 02:30:23;;;;;;;3.33;1.70;;;;;;;21.47;100.00;100776.00;4911259;28;20520;-70
2023/08/13 02:32:51;;;;;;;4.60;2.07;;;;;;;21.48;100.00;100766.06;4926094;29;20238;-73
2023/08/13 02:35:19;;;;;;;3.90;1.93;;;;;;;21.51;100.00;100776.44;4912604;29;20652;-75
2023/08/13 02:37:46;;;;;;;6.13;2.20;;;;;;;21.48;100.00;100782.25;4899208;29;20208;-74
2023/08/13 02:40:14;;;;;;;3.20;1.97;;;;;;;21.44;100.00;100781.84;4901709;29;21052;-76
2023/08/13 02:42:42;;;;;;;7.67;2.20;;;;;;;21.40;100.00;100781.44;4898001;29;20959;-78
2023/08/13 02:45:10;;;;;;;5.30;2.13;;;;;;;21.36;100.00;100782.09;4896968;29;20210;-77
2023/08/13 02:47:40;;;;;;;6.00;2.00;;;;;;;21.30;100.00;100774.81;4897311;29;20237;-77
2023/08/13 02:50:08;;;;;;;5.87;2.07;;;;;;;21.26;100.00;100774.44;4899746;29;20565;-77
2023/08/13 02:52:36;;;;;;;8.27;2.10;;;;;;;21.23;100.00;100774.84;4897773;29;20368;-78
2023/08/13 02:55:04;;;;;;;8.00;2.90;;;;;;;21.26;100.00;100774.44;4896772;29;20220;-76
2023/08/13 02:57:32;;;;;;;7.23;4.00;;;;;;;21.24;100.00;100772.97;4896949;29;20216;-77
2023/08/13 03:00:11;;;;;;;7.33;3.03;;;;;;;21.27;100.00;100772.56;4897032;29;20206;-76
2023/08/13 03:02:40;;;;;;;7.00;2.93;;;;;;;21.24;100.00;100757.63;4894880;29;20307;-74
2023/08/13 03:05:09;;;;;;;14.13;2.93;;;;;;;21.25;100.00;100761.97;4900302;29;20208;-75
2023/08/13 03:07:36;;;;;;;6.43;2.80;;;;;;;21.37;100.00;100760.25;4895634;29;20217;-74
2023/08/13 03:10:05;;;;;;;5.90;3.27;;;;;;;21.37;100.00;100757.56;4896974;29;20213;-75
2023/08/13 03:12:32;;;;;;;7.10;3.67;;;;;;;21.40;100.00;100759.03;4895462;29;20233;-74
2023/08/13 03:15:00;;;;;;;7.53;3.03;;;;;;;21.40;100.00;100753.63;4894888;29;21025;-75
2023/08/13 03:17:28;;;;;;;6.47;3.00;;;;;;;21.34;100.00;100763.41;4894793;29;20219;-76
2023/08/13 03:19:59;;;;;;;6.17;2.93;;;;;;;21.33;100.00;100769.84;4896098;29;20216;-76
2023/08/13 03:22:27;;;;;;;7.07;2.97;;;;;;;21.47;99.04;100780.56;4896984;29;20222;-71
2023/08/13 03:24:55;;;;;;;5.77;2.63;;;;;;;21.53;98.17;100774.34;4896690;29;20562;-73
2023/08/13 03:27:22;;;;;;;7.27;2.63;;;;;;;21.49;98.34;100771.25;4893991;29;20340;-78
2023/08/13 03:29:50;;;;;;;3.97;2.10;;;;;;;21.51;98.29;100771.88;4895768;29;20213;-77
2023/08/13 03:32:18;;;;;;;7.07;2.43;;;;;;;21.49;99.16;100767.72;4895705;29;20322;-77
2023/08/13 03:34:46;;;;;;;5.70;2.57;;;;;;;21.46;100.00;100762.75;4896681;29;20245;-75
2023/08/13 03:37:15;;;;;;;5.63;2.30;;;;;;;21.35;100.00;100765.06;4896673;29;20217;-78
2023/08/13 03:39:42;;;;;;;3.73;2.10;;;;;;;21.45;99.03;100759.22;4896801;29;20217;-76
2023/08/13 03:42:10;;;;;;;4.67;2.10;;;;;;;21.44;100.00;100762.13;4896440;29;20237;-77
2023/08/13 03:44:40;;;;;;;3.93;2.23;;;;;;;21.34;100.00;100765.28;4894724;29;20210;-78
2023/08/13 03:47:07;;;;;;;3.13;1.90;;;;;;;21.29;100.00;100763.19;4896583;29;21055;-76
2023/08/13 03:49:35;;;;;;;5.47;2.47;;;;;;;21.34;100.00;100759.88;4896420;29;20280;-76
2023/08/13 03:52:03;;;;;;;10.57;2.40;;;;;;;21.48;97.54;100760.66;4898663;29;20866;-79
2023/08/13 03:54:33;;;;;;;4.77;2.00;;;;;;;21.52;97.27;100762.72;4899315;29;20611;-73
2023/08/13 03:57:00;;;;;;;5.50;2.10;;;;;;;21.47;98.15;100759.00;4894017;29;20209;-73
2023/08/13 03:59:28;;;;;;;6.03;2.50;;;;;;;21.39;99.53;100765.44;4895052;29;20264;-77
2023/08/13 04:01:57;;;;;;;5.77;2.60;;;;;;;21.31;100.00;100771.06;4894943;29;20222;-75
2023/08/13 04:04:26;;;;;;;5.43;1.90;;;;;;;21.30;100.00;100772.13;4895410;29;20228;-76
2023/08/13 04:06:53;;;;;;;5.23;2.50;;;;;;;21.25;100.00;100775.47;4912339;29;20264;-71
2023/08/13 04:09:21;;;;;;;4.80;2.20;;;;;;;21.22;100.00;100772.34;4919082;29;20261;-74
2023/08/13 04:11:50;;;;;;;7.70;2.97;;;;;;;21.21;100.00;100776.91;4902780;29;20842;-76
2023/08/13 04:14:18;;;;;;;5.30;2.30;;;;;;;21.30;99.55;100769.41;4895901;29;20248;-75
2023/08/13 04:16:46;;;;;;;6.10;2.43;;;;;;;21.27;100.00;100770.69;4897282;29;20304;-75
2023/08/13 04:19:13;;;;;;;6.87;2.27;;;;;;;21.22;100.00;100772.34;4894990;29;20201;-74
2023/08/13 04:21:41;;;;;;;5.03;2.23;;;;;;;21.25;100.00;100775.47;4894844;29;20647;-77
2023/08/13 04:24:09;;;;;;;4.63;2.33;;;;;;;21.21;100.00;100776.91;4894446;29;20303;-76
2023/08/13 04:26:37;;;;;;;6.47;2.57;;;;;;;21.20;100.00;100769.03;4896157;29;20240;-76
2023/08/13 04:29:06;;;;;;;4.57;2.40;;;;;;;21.26;100.00;100773.59;4895476;29;20209;-72
2023/08/13 04:31:34;;;;;;;6.23;2.37;;;;;;;21.37;98.05;100776.44;4894200;29;20288;-75
2023/08/13 04:34:01;;;;;;;6.27;2.20;;;;;;;21.43;98.28;100773.97;4896067;29;20241;-77
2023/08/13 04:36:29;;;;;;;7.47;2.30;;;;;;;21.31;100.00;100760.28;4897093;29;20269;-75
2023/08/13 04:38:57;;;;;;;6.57;3.20;;;;;;;21.28;99.95;100772.34;4898702;29;20538;-73
2023/08/13 04:41:25;;;;;;;4.83;2.70;;;;;;;21.27;100.00;100773.38;4895218;29;20237;-76
2023/08/13 04:43:52;;;;;;;5.23;2.97;;;;;;;21.23;100.00;100771.31;4897431;29;20228;-75
2023/08/13 04:46:21;;;;;;;4.97;2.50;;;;;;;21.20;100.00;100774.41;4896470;29;20356;-76
2023/08/13 04:48:49;;;;;;;6.03;2.53;;;;;;;21.24;100.00;100775.66;4895478;29;20213;-73
2023/08/13 04:51:19;;;;;;;4.93;2.50;;;;;;;21.34;98.33;100771.50;4894211;29;21087;-73
2023/08/13 04:53:47;;;;;;;5.97;2.83;;;;;;;21.32;99.78;100783.53;4897316;29;20236;-73
2023/08/13 04:56:15;;;;;;;6.43;2.70;;;;;;;21.32;100.00;100784.34;4895356;29;20216;-75
2023/08/13 04:58:43;;;;;;;7.67;2.73;;;;;;;21.25;100.00;100786.25;4894026;29;20928;-76
2023/08/13 05:01:11;;;;;;;4.43;2.53;;;;;;;21.33;98.37;100783.31;4897768;29;20213;-75
2023/08/13 05:03:40;;;;;;;6.47;2.43;;;;;;;21.46;97.14;100787.84;4897597;29;20216;-75
2023/08/13 05:06:08;;;;;;;7.27;2.50;;;;;;;21.47;98.74;100780.56;4895796;29;20932;-75
2023/08/13 05:08:36;;;;;;;5.27;2.97;;;;;;;21.30;100.00;100785.59;4893035;29;20291;-76
2023/08/13 05:11:03;;;;;;;12.43;3.00;;;;;;;21.28;99.90;100780.44;4895547;29;20284;-75
2023/08/13 05:13:31;;;;;;;5.83;2.30;;;;;;;21.27;100.00;100781.47;4892969;29;20691;-74
2023/08/13 05:15:59;;;;;;;7.40;3.00;;;;;;;21.28;100.00;100777.75;4894134;29;20209;-76
2023/08/13 05:18:27;;;;;;;8.50;2.43;;;;;;;21.23;100.00;100777.53;4894970;29;20221;-73
2023/08/13 05:20:56;;;;;;;5.97;3.10;;;;;;;21.21;100.00;100776.91;4895800;29;20240;-75
2023/08/13 05:23:24;;;;;;;7.10;3.07;;;;;;;21.18;100.00;100776.50;4895453;29;20212;-74
2023/08/13 05:25:52;;;;;;;5.90;2.77;;;;;;;21.13;100.00;100785.19;4893624;29;20292;-73
2023/08/13 05:28:19;;;;;;;5.00;3.00;;;;;;;21.13;100.00;100774.41;4894768;29;20288;-74
2023/08/13 05:30:47;;;;;;;13.33;3.63;;;;;;;21.12;100.00;100778.13;4897256;29;20241;-75
2023/08/13 05:33:15;;;;;;;5.67;3.00;;;;;;;21.13;100.00;100778.97;4895671;29;20607;-73
2023/08/13 05:35:42;;;;;;;6.43;2.90;;;;;;;21.18;100.00;100777.34;4897637;29;20213;-76
2023/08/13 05:38:12;;;;;;;4.20;2.77;;;;;;;21.17;100.00;100781.06;4895285;29;20869;-74
2023/08/13 05:40:39;;;;;;;6.40;2.77;;;;;;;21.08;100.00;100785.00;4897026;29;20213;-78
2023/08/13 05:43:07;;;;;;;3.67;2.30;;;;;;;21.13;100.00;100787.88;4894850;29;20276;-74
2023/08/13 05:45:35;;;;;;;4.77;2.27;;;;;;;21.12;100.00;100794.31;4896482;29;20294;-76
2023/08/13 05:48:03;;;;;;;5.40;2.30;;;;;;;21.14;100.00;100794.94;4894493;29;20727;-75
2023/08/13 05:50:31;;;;;;;6.77;2.77;;;;;;;21.23;100.00;100791.00;4896092;29;20300;-75
2023/08/13 05:52:58;;;;;;;4.73;2.60;;;;;;;21.23;100.00;100791.00;4896203;29;20234;-76
2023/08/13 05:55:28;;;;;;;6.20;2.63;;;;;;;21.24;100.00;100789.97;4896080;29;20229;-74
2023/08/13 05:57:55;;;;;;;7.50;2.73;;;;;;;21.27;100.00;100794.97;4896171;29;20209;-75
2023/08/13 06:00:25;;;;;;;5.30;1.97;;;;;;;21.33;100.00;100796.81;4898010;29;20213;-75
2023/08/13 06:02:52;;;;;;;4.03;2.47;;;;;;;21.44;100.00;100798.03;4891614;29;21143;-76
2023/08/13 06:05:21;;;;;;;3.97;2.37;;;;;;;21.47;100.00;100791.38;4894172;29;20213;-75
2023/08/13 06:07:48;;;;;;;7.43;2.00;;;;;;;21.48;100.00;100790.34;4893028;29;20785;-76
2023/08/13 06:10:16;;;;;;;6.83;2.63;;;;;;;21.55;99.29;100800.06;4894434;29;20248;-73
2023/08/13 06:12:45;;;;;;;4.33;2.13;;;;;;;21.59;99.02;100793.22;4893558;29;20229;-72
2023/08/13 06:15:13;;;;;;;4.70;2.77;;;;;;;21.65;97.65;100796.94;4895584;29;20213;-77
2023/08/13 06:17:42;;;;;;;3.13;2.13;;;;;;;21.74;95.95;100792.94;4893652;29;20313;-76
2023/08/13 06:20:11;;;;;;;4.97;2.43;;;;;;;21.82;95.17;100790.00;4898160;29;20209;-76
2023/08/13 06:22:39;;;;;;;4.87;2.27;;;;;;;21.84;96.64;100787.09;4897525;29;20308;-75
2023/08/13 06:25:07;;;;;;;5.17;2.73;;;;;;;21.83;97.16;100791.66;4896611;29;20209;-75
2023/08/13 06:27:35;;;;;;;6.00;2.20;;;;;;;21.88;96.70;100799.16;4896952;29;20241;-76
2023/08/13 06:30:06;;;;;;;3.93;2.10;;;;;;;21.89;96.00;100790.84;4900569;29;20288;-75
2023/08/13 06:32:38;;;;;;;5.63;2.47;;;;;;;21.95;96.08;100794.53;4897925;29;20292;-75
2023/08/13 06:35:06;;;;;;;4.97;2.40;;;;;;;21.94;97.63;100800.97;4899696;29;20237;-76
2023/08/13 06:37:34;;;;;;;4.53;2.40;;;;;;;21.88;98.50;100796.44;4900784;29;20245;-74
2023/08/13 06:40:17;;;;;;;4.77;2.50;;;;;;;21.91;98.64;100801.41;4898371;29;20228;-75
2023/08/13 06:42:45;;;;;;;3.83;2.30;;;;;;;21.87;98.86;100803.72;4898159;29;20707;-74
2023/08/13 06:45:14;;;;;;;4.45;2.65;;;;;;;21.85;99.56;100795.00;4898724;29;20266;-75
2023/08/13 06:47:42;;;;;;;5.17;2.63;;;;;;;21.87;99.45;100792.91;4898252;29;20818;-74
2023/08/13 06:50:10;;;;;;;3.33;2.35;;;;;;;21.89;98.12;100790.84;4899961;29;20714;-74
2023/08/13 06:52:38;;;;;;;5.47;2.20;;;;;;;21.95;97.74;100795.38;4897761;29;20216;-75
2023/08/13 06:55:06;;;;;;;8.30;2.70;;;;;;;21.96;95.96;100794.31;4902909;29;20265;-75
2023/08/13 06:57:34;;;;;;;3.27;2.00;;;;;;;22.03;95.31;100797.03;4898913;29;20264;-73
2023/08/13 07:00:03;;;;;;;7.00;2.83;;;;;;;22.11;94.06;100799.47;4899317;29;20205;-74
2023/08/13 07:02:32;;;;;;;6.40;3.10;;;;;;;22.13;95.44;100798.22;4895382;29;20293;-74
2023/08/13 07:05:00;;;;;;;4.90;2.60;;;;;;;22.16;94.48;100801.53;4900834;29;20223;-68
2023/08/13 07:07:28;;;;;;;3.70;2.30;;;;;;;22.21;94.00;100802.53;4897031;29;20565;-68
2023/08/13 07:09:55;;;;;;;4.10;2.40;;;;;;;22.29;94.73;100796.06;4896942;29;20272;-69
2023/08/13 07:12:24;;;;;;;4.70;3.03;;;;;;;22.32;93.49;100806.44;4894036;29;20214;-70
2023/08/13 07:14:55;;;;;;;4.57;2.60;;;;;;;22.41;92.83;100805.13;4899042;29;20582;-68
2023/08/13 07:17:23;;;;;;;5.32;2.63;;;;;;;22.46;92.32;100794.50;4899947;29;20213;-70
2023/08/13 07:19:52;;;;;;;4.57;2.80;;;;;;;22.53;90.82;100804.19;4901813;29;20228;-69
2023/08/13 07:22:21;;;;;;;5.80;2.55;;;;;;;22.60;89.16;100806.88;4900930;29;20296;-68
2023/08/13 07:24:49;;;;;;;5.65;2.70;;;;;;;22.68;90.63;100795.81;4899414;29;20217;-68
2023/08/13 07:27:17;;;;;;;5.53;2.75;;;;;;;22.76;90.76;100798.25;4897635;29;20265;-67
2023/08/13 07:29:45;;;;;;;6.07;2.55;;;;;;;22.73;91.21;100798.66;4897773;29;20747;-68
2023/08/13 07:32:13;;;;;;;8.38;2.80;;;;;;;22.78;90.11;100804.25;4900136;29;20208;-69
2023/08/13 07:34:42;;;;;;;8.48;3.20;;;;;;;22.83;89.42;100796.34;4897812;29;20267;-69
2023/08/13 07:37:12;;;;;;;4.85;2.88;;;;;;;22.82;89.74;100802.78;4896404;29;20215;-67
2023/08/13 07:39:40;;;;;;;6.63;2.63;;;;;;;22.87;89.21;100802.09;4897369;29;20227;-70
2023/08/13 07:42:08;;;;;;;7.75;2.80;;;;;;;22.88;88.69;100807.31;4898254;29;20261;-69
2023/08/13 07:44:36;;;;;;;4.10;2.10;;;;;;;22.95;87.90;100817.25;4897281;29;20296;-70
2023/08/13 07:47:05;;;;;;;8.38;2.80;;;;;;;23.08;87.39;100817.13;4897212;29;20208;-68
2023/08/13 07:49:33;;;;;;;7.05;2.75;;;;;;;23.12;86.34;100810.25;4896871;29;20280;-70
2023/08/13 07:52:00;;;;;;;8.35;2.47;;;;;;;23.23;84.87;100804.06;4896856;29;20714;-68
2023/08/13 07:54:29;;;;;;;6.50;2.70;;;;;;;23.23;86.12;100804.06;4897569;29;20240;-69
2023/08/13 07:56:57;;;;;;;8.07;2.60;;;;;;;23.36;85.85;100800.41;4897732;29;20289;-69
2023/08/13 07:59:25;;;;;;;8.68;2.83;;;;;;;23.52;84.04;100797.16;4898160;29;20213;-68
2023/08/13 08:01:53;;;;;;;4.25;2.38;;;;;;;23.70;82.53;100801.75;4898707;29;20209;-69
2023/08/13 08:04:21;;;;;;;3.30;2.30;;;;;;;23.80;81.22;100793.94;4895358;29;20229;-68
2023/08/13 08:06:49;;;;;;;5.03;2.10;;;;;;;23.78;81.55;100799.56;4898812;29;20272;-69
2023/08/13 08:09:19;;;;;;;4.95;2.63;;;;;;;23.68;81.77;100803.84;4897867;29;20617;-68
2023/08/13 08:11:48;;;;;;;4.82;2.17;;;;;;;23.67;81.34;100800.31;4895930;29;20206;-69
2023/08/13 08:14:16;;;;;;;5.97;2.10;;;;;;;23.67;81.43;100797.59;4898116;29;20284;-67
2023/08/13 08:16:44;;;;;;;4.05;2.20;;;;;;;23.76;82.38;100792.72;4894162;29;20208;-68
2023/08/13 08:19:13;;;;;;;5.25;2.30;;;;;;;23.86;81.33;100787.59;4896768;29;20209;-70
2023/08/13 08:21:41;;;;;;;6.00;2.50;;;;;;;24.09;79.96;100790.44;4895610;29;20215;-68
2023/08/13 08:24:08;;;;;;;5.80;2.45;;;;;;;24.21;77.97;100791.31;4896673;29;21172;-70
2023/08/13 08:26:39;;;;;;;7.05;2.22;;;;;;;24.25;77.45;100797.94;4897336;29;20304;-69
2023/08/13 08:29:08;;;;;;;5.60;2.50;;;;;;;24.23;76.87;100791.09;4891385;29;20248;-70
2023/08/13 08:31:36;;;;;;;5.88;2.15;;;;;;;24.32;76.30;100798.66;4897195;29;20796;-70
2023/08/13 08:34:04;;;;;;;3.55;2.13;;;;;;;24.38;76.02;100797.75;4894954;29;20241;-68
2023/08/13 08:36:31;;;;;;;5.65;2.55;;;;;;;24.31;75.31;100797.00;4895504;29;20212;-70
2023/08/13 08:38:59;;;;;;;6.72;2.20;;;;;;;24.37;77.02;100790.66;4893098;29;20276;-69
2023/08/13 08:41:28;;;;;;;13.38;2.28;;;;;;;24.45;73.98;100796.84;4896292;29;20241;-69
2023/08/13 08:43:59;;;;;;;10.88;2.40;;;;;;;24.47;72.14;100789.28;4894472;29;20668;-69
2023/08/13 08:46:30;;;;;;;5.05;2.08;;;;;;;24.51;72.33;100791.31;4900795;29;20613;-68
2023/08/13 08:49:00;;;;;;;4.25;1.98;;;;;;;24.51;71.74;100790.47;4895054;29;21142;-68
2023/08/13 08:51:28;;;;;;;6.72;2.22;;;;;;;24.54;71.74;100785.41;4897356;29;20739;-69
2023/08/13 08:53:58;;;;;;;3.40;1.63;;;;;;;24.56;69.79;100788.72;4897062;29;20298;-71
2023/08/13 08:56:26;;;;;;;10.02;2.30;;;;;;;24.58;69.24;100785.78;4896620;29;20289;-70
2023/08/13 08:58:54;;;;;;;3.78;1.90;;;;;;;24.59;68.89;100782.84;4895764;29;20292;-71
2023/08/13 09:01:21;;;;;;;5.47;1.65;;;;;;;24.57;69.56;100784.94;4896498;29;20213;-68
2023/08/13 09:03:51;;;;;;;4.40;1.80;;;;;;;24.60;69.76;100784.50;4897700;29;20235;-72
2023/08/13 09:06:19;;;;;;;6.40;2.17;;;;;;;24.77;67.24;100778.38;4898882;29;20209;-69
2023/08/13 09:08:49;;;;;;;2.90;1.60;;;;;;;24.75;64.21;100775.91;4895046;29;20217;-68
2023/08/13 09:11:18;;;;;;;6.45;1.85;;;;;;;24.83;63.88;100780.16;4897636;29;20217;-69
2023/08/13 09:13:48;;;;;;;7.25;2.35;;;;;;;24.97;65.56;100787.88;4895233;29;20220;-68
2023/08/13 09:16:16;;;;;;;8.38;2.35;;;;;;;25.03;65.90;100784.22;4893287;29;20221;-70
2023/08/13 09:18:44;;;;;;;5.90;2.10;;;;;;;24.98;66.87;100784.09;4891463;29;20297;-65
2023/08/13 09:21:18;;;;;;;10.13;2.25;;;;;;;25.10;65.69;100778.69;4892846;29;20205;-66
2023/08/13 09:23:49;;;;;;;7.57;2.08;;;;;;;25.18;64.64;100770.19;4896010;29;20232;-65
2023/08/13 09:26:18;;;;;;;7.13;2.00;;;;;;;25.32;63.94;100766.16;4898107;29;20221;-61
2023/08/13 09:28:46;;;;;;;8.27;2.10;;;;;;;25.27;63.68;100767.94;4893679;29;20205;-64
2023/08/13 09:31:13;;;;;;;6.95;2.00;;;;;;;25.23;64.76;100766.78;4896173;29;20211;-64
2023/08/13 09:33:47;;;;;;;6.20;1.92;;;;;;;25.19;67.10;100760.16;4898585;29;20209;-63
2023/08/13 09:36:18;;;;;;;6.43;2.20;;;;;;;25.25;65.41;100762.72;4897098;29;20229;-65
2023/08/13 09:38:47;;;;;;;5.95;1.90;;;;;;;25.39;63.63;100766.88;4895210;29;20675;-64
2023/08/13 09:41:15;;;;;;;15.27;4.45;;;;;;;25.35;64.02;100767.56;4893372;29;20850;-66
2023/08/13 09:43:44;;;;;;;8.52;2.72;;;;;;;25.30;63.73;100768.28;4896706;29;20218;-67
2023/08/13 09:46:13;;;;;;;8.88;2.58;;;;;;;25.25;61.04;100765.44;4896363;29;20489;-66
2023/08/13 09:48:43;;;;;;;8.50;2.25;;;;;;;25.19;58.79;100765.56;4894716;29;21222;-68
2023/08/13 09:51:12;;;;;;;7.50;2.47;;;;;;;25.14;57.87;100762.75;4896050;29;20682;-65
2023/08/13 09:53:50;;;;;;;7.80;2.17;;;;;;;25.18;54.51;100763.91;4900844;29;20231;-67
2023/08/13 09:56:20;;;;;;;5.93;1.70;;;;;;;25.19;52.25;100760.16;4898262;29;20316;-66
2023/08/13 09:58:48;;;;;;;3.22;1.70;;;;;;;25.21;50.99;100758.03;4899131;29;20209;-64
2023/08/13 10:01:17;;;;;;;7.07;2.33;;;;;;;25.27;53.39;100757.91;4900335;29;20687;-66
2023/08/13 10:03:45;;;;;;;5.38;1.95;;;;;;;25.29;53.04;100760.38;4903070;29;20205;-64
2023/08/13 10:06:14;;;;;;;5.32;1.58;;;;;;;25.30;51.04;100762.03;4899961;29;20208;-66
2023/08/13 10:08:45;;;;;;;5.72;2.15;;;;;;;25.38;51.30;100759.78;4899612;29;20740;-63
2023/08/13 10:11:14;;;;;;;8.90;1.80;;;;;;;25.40;51.11;100748.69;4900804;29;20285;-62
2023/08/13 10:13:41;;;;;;;7.68;2.47;;;;;;;25.44;51.47;100763.41;4897819;29;20688;-65
2023/08/13 10:16:10;;;;;;;6.25;2.50;;;;;;;25.39;51.14;100763.31;4902165;29;20237;-65
2023/08/13 10:18:38;;;;;;;6.85;2.25;;;;;;;25.37;50.51;100757.31;4899400;29;20203;-65
2023/08/13 10:21:06;;;;;;;6.57;2.42;;;;;;;25.35;51.05;100757.53;4906686;29;20205;-64
2023/08/13 10:23:35;;;;;;;8.13;2.47;;;;;;;25.37;51.34;100762.72;4905082;29;20245;-63
2023/08/13 10:26:07;;;;;;;7.15;2.58;;;;;;;25.46;52.00;100753.16;4905154;29;20213;-64
2023/08/13 10:28:36;;;;;;;4.18;1.77;;;;;;;25.54;51.60;100752.78;4906806;29;20293;-63
2023/08/13 10:31:30;;;;;;;6.35;2.30;;;;;;;25.67;51.36;100758.00;4905432;29;20213;-68
2023/08/13 10:34:00;;;;;;;7.20;3.45;;;;;;;25.71;51.05;100748.28;4906754;29;20233;-64
2023/08/13 10:36:43;;;;;;;6.18;2.03;;;;;;;25.87;50.84;100752.13;4906993;29;20288;-65
2023/08/13 10:39:31;;;;;;;3.20;1.90;;;;;;;25.99;50.33;100754.81;4902084;29;20345;-65
2023/08/13 10:42:03;;;;;;;4.53;1.75;;;;;;;26.04;50.62;100757.59;4898756;29;20356;-66
2023/08/13 10:44:33;;;;;;;5.22;1.90;;;;;;;26.11;50.32;100758.31;4901929;29;20201;-63
2023/08/13 10:47:03;;;;;;;5.35;1.95;;;;;;;26.14;49.92;100752.34;4905055;29;20217;-65
2023/08/13 10:49:31;;;;;;;3.45;1.73;;;;;;;26.13;49.52;100753.44;4900070;29;20222;-65
2023/08/13 10:52:01;;;;;;;7.80;4.25;;;;;;;26.18;49.55;100748.09;4898779;29;20232;-66
2023/08/13 10:54:29;;;;;;;8.80;3.50;;;;;;;26.30;49.84;100757.03;4898290;29;20220;-64
2023/08/13 10:57:00;;;;;;;5.30;2.00;;;;;;;26.38;49.46;100753.94;4896164;29;20244;-65
2023/08/13 10:59:30;;;;;;;4.90;2.00;;;;;;;26.47;50.47;100757.91;4897359;29;20228;-65
2023/08/13 11:02:12;;;;;;;9.48;2.13;;;;;;;26.53;49.56;100751.47;4896122;29;20213;-65
2023/08/13 11:04:42;;;;;;;4.55;1.77;;;;;;;26.54;48.90;100758.56;4898814;29;20217;-65
2023/08/13 11:07:11;;;;;;;5.90;2.20;;;;;;;26.47;49.40;100752.47;4899218;29;20304;-66
2023/08/13 11:09:39;;;;;;;6.60;2.78;;;;;;;26.47;49.05;100760.63;4895682;29;20209;-65
2023/08/13 11:12:12;;;;;;;6.35;2.08;;;;;;;26.42;49.73;100757.81;4892685;29;20218;-64
2023/08/13 11:14:42;;;;;;;5.57;2.13;;;;;;;26.36;50.18;100760.69;4897679;29;20945;-64
2023/08/13 11:17:13;;;;;;;4.47;1.98;;;;;;;26.34;51.09;100763.63;4896475;29;20237;-65
2023/08/13 11:19:41;;;;;;;4.90;1.92;;;;;;;26.31;50.81;100758.69;4895273;29;20202;-65
2023/08/13 11:22:10;;;;;;;5.25;1.80;;;;;;;26.24;50.50;100755.25;4894393;29;20220;-62
2023/08/13 11:24:38;;;;;;;8.02;2.72;;;;;;;26.17;50.92;100755.44;4894670;29;20259;-65
2023/08/13 11:27:06;;;;;;;6.30;2.95;;;;;;;26.11;51.75;100753.69;4896682;29;20208;-66
2023/08/13 11:29:35;;;;;;;7.30;3.13;;;;;;;26.04;51.68;100747.56;4895278;29;20220;-65